sensor_id;sensor_type;location;lat;lon;timestamp;P1;durP1;ratioP1;P2;durP2;ratioP2
44532;SDS011;48673;53.016;-2.258;2022-09-09T00:00:05;30.77;;;15.63;;
44532;SDS011;48673;53.016;-2.258;2022-09-09T00:02:55;24.52;;;14.18;;
44532;SDS011;48673;53.016;-2.258;2022-09-09T00:05:52;17.95;;;11.70;;
44532;SDS011;48673;53.016;-2.258;2022-09-09T00:08:56;26.58;;;16.15;;
44532;SDS011;48673;53.016;-2.258;2022-09-09T00:11:43;24.17;;;13.35;;
44532;SDS011;48673;53.016;-2.258;2022-09-09T00:14:20;25.48;;;14.48;;
44532;SDS011;48673;53.016;-2.258;2022-09-09T00:17:09;27.30;;;14.15;;
44532;SDS011;48673;53.016;-2.258;2022-09-09T00:20:35;28.88;;;16.58;;
44532;SDS011;48673;53.016;-2.258;2022-09-09T00:23:59;20.52;;;15.35;;
44532;SDS011;48673;53.016;-2.258;2022-09-09T00:26:26;25.67;;;15.98;;
44532;SDS011;48673;53.016;-2.258;2022-09-09T00:31:36;27.58;;;17.63;;
44532;SDS011;48673;53.016;-2.258;2022-09-09T00:34:14;36.83;;;18.90;;
44532;SDS011;48673;53.016;-2.258;2022-09-09T00:36:45;33.60;;;18.55;;
44532;SDS011;48673;53.016;-2.258;2022-09-09T00:39:39;34.80;;;18.60;;
44532;SDS011;48673;53.016;-2.258;2022-09-09T00:44:50;30.00;;;16.65;;
44532;SDS011;48673;53.016;-2.258;2022-09-09T00:58:47;31.35;;;18.08;;
44532;SDS011;48673;53.016;-2.258;2022-09-09T01:01:30;30.35;;;16.52;;
44532;SDS011;48673;53.016;-2.258;2022-09-09T01:03:58;26.65;;;16.67;;
44532;SDS011;48673;53.016;-2.258;2022-09-09T01:06:30;33.55;;;18.05;;
44532;SDS011;48673;53.016;-2.258;2022-09-09T01:09:10;26.85;;;18.00;;
44532;SDS011;48673;53.016;-2.258;2022-09-09T01:12:15;26.92;;;16.52;;
44532;SDS011;48673;53.016;-2.258;2022-09-09T01:15:01;28.95;;;18.38;;
44532;SDS011;48673;53.016;-2.258;2022-09-09T01:17:58;21.23;;;13.40;;
44532;SDS011;48673;53.016;-2.258;2022-09-09T01:29:02;39.55;;;19.20;;
44532;SDS011;48673;53.016;-2.258;2022-09-09T01:31:41;32.15;;;19.27;;
44532;SDS011;48673;53.016;-2.258;2022-09-09T01:34:20;34.15;;;17.45;;
44532;SDS011;48673;53.016;-2.258;2022-09-09T01:37:07;31.33;;;18.13;;
44532;SDS011;48673;53.016;-2.258;2022-09-09T01:39:39;33.70;;;18.00;;
44532;SDS011;48673;53.016;-2.258;2022-09-09T01:42:15;29.75;;;18.35;;
44532;SDS011;48673;53.016;-2.258;2022-09-09T01:44:44;33.92;;;18.58;;
44532;SDS011;48673;53.016;-2.258;2022-09-09T01:47:14;24.83;;;17.65;;
44532;SDS011;48673;53.016;-2.258;2022-09-09T01:50:03;27.95;;;17.52;;
44532;SDS011;48673;53.016;-2.258;2022-09-09T01:55:05;28.85;;;16.65;;
44532;SDS011;48673;53.016;-2.258;2022-09-09T01:58:02;32.35;;;16.40;;
44532;SDS011;48673;53.016;-2.258;2022-09-09T02:00:30;25.52;;;16.17;;
44532;SDS011;48673;53.016;-2.258;2022-09-09T02:03:05;30.90;;;18.15;;
44532;SDS011;48673;53.016;-2.258;2022-09-09T02:08:26;24.52;;;15.88;;
44532;SDS011;48673;53.016;-2.258;2022-09-09T02:11:09;25.98;;;16.40;;
44532;SDS011;48673;53.016;-2.258;2022-09-09T02:13:48;26.92;;;16.48;;
44532;SDS011;48673;53.016;-2.258;2022-09-09T02:16:28;26.17;;;15.77;;
44532;SDS011;48673;53.016;-2.258;2022-09-09T02:19:21;22.42;;;14.40;;
44532;SDS011;48673;53.016;-2.258;2022-09-09T02:22:17;27.95;;;15.05;;
44532;SDS011;48673;53.016;-2.258;2022-09-09T02:24:48;22.83;;;14.32;;
44532;SDS011;48673;53.016;-2.258;2022-09-09T02:27:24;26.13;;;15.38;;
44532;SDS011;48673;53.016;-2.258;2022-09-09T02:29:52;29.50;;;14.03;;
44532;SDS011;48673;53.016;-2.258;2022-09-09T02:32:34;27.75;;;13.48;;
44532;SDS011;48673;53.016;-2.258;2022-09-09T02:35:08;25.20;;;12.93;;
44532;SDS011;48673;53.016;-2.258;2022-09-09T02:37:39;21.70;;;12.85;;
44532;SDS011;48673;53.016;-2.258;2022-09-09T02:40:11;26.05;;;14.00;;
44532;SDS011;48673;53.016;-2.258;2022-09-09T02:42:44;17.75;;;12.75;;
44532;SDS011;48673;53.016;-2.258;2022-09-09T02:45:15;24.17;;;12.50;;
44532;SDS011;48673;53.016;-2.258;2022-09-09T02:47:50;27.90;;;13.82;;
44532;SDS011;48673;53.016;-2.258;2022-09-09T02:50:32;22.55;;;10.75;;
44532;SDS011;48673;53.016;-2.258;2022-09-09T02:58:19;25.95;;;12.00;;
44532;SDS011;48673;53.016;-2.258;2022-09-09T03:00:58;22.83;;;12.38;;
44532;SDS011;48673;53.016;-2.258;2022-09-09T03:03:29;21.42;;;11.25;;
44532;SDS011;48673;53.016;-2.258;2022-09-09T03:06:00;21.67;;;12.38;;
44532;SDS011;48673;53.016;-2.258;2022-09-09T03:08:31;17.30;;;11.27;;
44532;SDS011;48673;53.016;-2.258;2022-09-09T03:11:03;21.08;;;11.75;;
44532;SDS011;48673;53.016;-2.258;2022-09-09T03:13:34;22.88;;;12.52;;
44532;SDS011;48673;53.016;-2.258;2022-09-09T03:16:02;23.67;;;12.48;;
44532;SDS011;48673;53.016;-2.258;2022-09-09T03:18:35;23.73;;;12.30;;
44532;SDS011;48673;53.016;-2.258;2022-09-09T03:21:03;19.77;;;11.80;;
44532;SDS011;48673;53.016;-2.258;2022-09-09T03:23:31;20.10;;;10.48;;
44532;SDS011;48673;53.016;-2.258;2022-09-09T03:26:02;19.88;;;12.68;;
44532;SDS011;48673;53.016;-2.258;2022-09-09T03:28:38;25.48;;;12.27;;
44532;SDS011;48673;53.016;-2.258;2022-09-09T03:31:06;22.63;;;12.32;;
44532;SDS011;48673;53.016;-2.258;2022-09-09T03:33:41;27.13;;;13.02;;
44532;SDS011;48673;53.016;-2.258;2022-09-09T03:36:12;25.92;;;13.07;;
44532;SDS011;48673;53.016;-2.258;2022-09-09T03:38:41;24.55;;;13.60;;
44532;SDS011;48673;53.016;-2.258;2022-09-09T03:41:10;23.27;;;12.02;;
44532;SDS011;48673;53.016;-2.258;2022-09-09T03:43:38;18.00;;;12.35;;
44532;SDS011;48673;53.016;-2.258;2022-09-09T03:46:06;20.02;;;10.85;;
44532;SDS011;48673;53.016;-2.258;2022-09-09T03:48:34;26.42;;;12.70;;
44532;SDS011;48673;53.016;-2.258;2022-09-09T03:51:03;21.13;;;11.23;;
44532;SDS011;48673;53.016;-2.258;2022-09-09T03:53:32;17.95;;;11.57;;
44532;SDS011;48673;53.016;-2.258;2022-09-09T03:56:05;26.25;;;12.32;;
44532;SDS011;48673;53.016;-2.258;2022-09-09T04:01:06;21.48;;;12.95;;
44532;SDS011;48673;53.016;-2.258;2022-09-09T04:03:38;21.15;;;13.05;;
44532;SDS011;48673;53.016;-2.258;2022-09-09T04:06:11;22.73;;;13.27;;
44532;SDS011;48673;53.016;-2.258;2022-09-09T04:08:44;22.98;;;13.82;;
44532;SDS011;48673;53.016;-2.258;2022-09-09T04:11:14;24.48;;;15.20;;
44532;SDS011;48673;53.016;-2.258;2022-09-09T04:13:44;21.20;;;13.57;;
44532;SDS011;48673;53.016;-2.258;2022-09-09T04:16:12;24.92;;;14.25;;
44532;SDS011;48673;53.016;-2.258;2022-09-09T04:18:42;28.67;;;12.95;;
44532;SDS011;48673;53.016;-2.258;2022-09-09T04:21:13;22.80;;;12.43;;
44532;SDS011;48673;53.016;-2.258;2022-09-09T04:23:43;23.48;;;13.43;;
44532;SDS011;48673;53.016;-2.258;2022-09-09T04:26:11;18.30;;;13.17;;
44532;SDS011;48673;53.016;-2.258;2022-09-09T04:28:39;25.38;;;14.20;;
44532;SDS011;48673;53.016;-2.258;2022-09-09T04:31:18;25.73;;;15.25;;
44532;SDS011;48673;53.016;-2.258;2022-09-09T04:33:53;22.10;;;13.65;;
44532;SDS011;48673;53.016;-2.258;2022-09-09T04:36:21;26.33;;;13.63;;
44532;SDS011;48673;53.016;-2.258;2022-09-09T04:38:54;23.85;;;13.98;;
44532;SDS011;48673;53.016;-2.258;2022-09-09T04:41:21;18.70;;;13.10;;
44532;SDS011;48673;53.016;-2.258;2022-09-09T04:43:52;22.98;;;13.38;;
44532;SDS011;48673;53.016;-2.258;2022-09-09T04:48:50;23.77;;;13.82;;
44532;SDS011;48673;53.016;-2.258;2022-09-09T04:51:21;26.33;;;14.85;;
44532;SDS011;48673;53.016;-2.258;2022-09-09T04:53:50;22.92;;;14.43;;
44532;SDS011;48673;53.016;-2.258;2022-09-09T04:56:21;20.58;;;13.23;;
44532;SDS011;48673;53.016;-2.258;2022-09-09T04:58:55;24.17;;;14.23;;
44532;SDS011;48673;53.016;-2.258;2022-09-09T05:01:30;29.52;;;16.75;;
44532;SDS011;48673;53.016;-2.258;2022-09-09T05:04:02;26.50;;;15.27;;
44532;SDS011;48673;53.016;-2.258;2022-09-09T05:06:32;26.80;;;16.33;;
44532;SDS011;48673;53.016;-2.258;2022-09-09T05:09:02;22.05;;;15.02;;
44532;SDS011;48673;53.016;-2.258;2022-09-09T05:11:31;31.00;;;15.73;;
44532;SDS011;48673;53.016;-2.258;2022-09-09T05:14:25;29.88;;;16.05;;
44532;SDS011;48673;53.016;-2.258;2022-09-09T05:16:54;25.13;;;16.38;;
44532;SDS011;48673;53.016;-2.258;2022-09-09T05:19:23;30.50;;;16.77;;
44532;SDS011;48673;53.016;-2.258;2022-09-09T05:21:52;28.33;;;15.57;;
44532;SDS011;48673;53.016;-2.258;2022-09-09T05:24:27;28.17;;;17.45;;
44532;SDS011;48673;53.016;-2.258;2022-09-09T05:27:02;22.58;;;14.23;;
44532;SDS011;48673;53.016;-2.258;2022-09-09T05:29:30;24.52;;;15.40;;
44532;SDS011;48673;53.016;-2.258;2022-09-09T05:32:02;28.77;;;16.50;;
44532;SDS011;48673;53.016;-2.258;2022-09-09T05:34:31;25.95;;;17.02;;
44532;SDS011;48673;53.016;-2.258;2022-09-09T05:37:00;34.25;;;16.60;;
44532;SDS011;48673;53.016;-2.258;2022-09-09T05:39:27;35.83;;;18.50;;
44532;SDS011;48673;53.016;-2.258;2022-09-09T05:41:56;24.50;;;15.63;;
44532;SDS011;48673;53.016;-2.258;2022-09-09T05:44:25;23.40;;;15.10;;
44532;SDS011;48673;53.016;-2.258;2022-09-09T05:46:55;28.48;;;17.13;;
44532;SDS011;48673;53.016;-2.258;2022-09-09T05:49:33;22.25;;;14.77;;
44532;SDS011;48673;53.016;-2.258;2022-09-09T05:52:02;25.70;;;15.98;;
44532;SDS011;48673;53.016;-2.258;2022-09-09T05:54:34;27.80;;;15.15;;
44532;SDS011;48673;53.016;-2.258;2022-09-09T05:57:01;31.30;;;15.65;;
44532;SDS011;48673;53.016;-2.258;2022-09-09T05:59:29;25.65;;;14.82;;
44532;SDS011;48673;53.016;-2.258;2022-09-09T06:01:59;27.08;;;15.20;;
44532;SDS011;48673;53.016;-2.258;2022-09-09T06:04:33;30.08;;;16.38;;
44532;SDS011;48673;53.016;-2.258;2022-09-09T06:07:03;28.92;;;16.65;;
44532;SDS011;48673;53.016;-2.258;2022-09-09T06:12:02;29.85;;;15.65;;
44532;SDS011;48673;53.016;-2.258;2022-09-09T06:14:34;30.08;;;16.58;;
44532;SDS011;48673;53.016;-2.258;2022-09-09T06:17:11;23.70;;;15.73;;
44532;SDS011;48673;53.016;-2.258;2022-09-09T06:19:40;34.38;;;17.35;;
44532;SDS011;48673;53.016;-2.258;2022-09-09T06:22:08;31.75;;;18.00;;
44532;SDS011;48673;53.016;-2.258;2022-09-09T06:24:39;31.63;;;16.83;;
44532;SDS011;48673;53.016;-2.258;2022-09-09T06:27:07;34.63;;;18.17;;
44532;SDS011;48673;53.016;-2.258;2022-09-09T06:29:36;29.67;;;18.65;;
44532;SDS011;48673;53.016;-2.258;2022-09-09T06:32:05;31.88;;;18.20;;
44532;SDS011;48673;53.016;-2.258;2022-09-09T06:34:35;35.35;;;18.02;;
44532;SDS011;48673;53.016;-2.258;2022-09-09T06:37:03;33.25;;;17.02;;
44532;SDS011;48673;53.016;-2.258;2022-09-09T06:39:41;35.88;;;18.52;;
44532;SDS011;48673;53.016;-2.258;2022-09-09T06:42:10;28.58;;;16.15;;
44532;SDS011;48673;53.016;-2.258;2022-09-09T06:44:50;32.42;;;16.80;;
44532;SDS011;48673;53.016;-2.258;2022-09-09T06:47:31;32.17;;;16.50;;
44532;SDS011;48673;53.016;-2.258;2022-09-09T06:50:01;28.92;;;16.33;;
44532;SDS011;48673;53.016;-2.258;2022-09-09T06:52:31;34.78;;;17.70;;
44532;SDS011;48673;53.016;-2.258;2022-09-09T06:57:29;40.53;;;17.10;;
44532;SDS011;48673;53.016;-2.258;2022-09-09T07:00:08;34.17;;;16.20;;
44532;SDS011;48673;53.016;-2.258;2022-09-09T07:02:37;28.30;;;15.75;;
44532;SDS011;48673;53.016;-2.258;2022-09-09T07:05:08;32.15;;;17.55;;
44532;SDS011;48673;53.016;-2.258;2022-09-09T07:07:37;38.83;;;17.20;;
44532;SDS011;48673;53.016;-2.258;2022-09-09T07:10:05;30.67;;;16.17;;
44532;SDS011;48673;53.016;-2.258;2022-09-09T07:12:36;33.85;;;16.90;;
44532;SDS011;48673;53.016;-2.258;2022-09-09T07:15:08;30.85;;;16.23;;
44532;SDS011;48673;53.016;-2.258;2022-09-09T07:17:40;31.85;;;16.67;;
44532;SDS011;48673;53.016;-2.258;2022-09-09T07:20:08;28.20;;;16.45;;
44532;SDS011;48673;53.016;-2.258;2022-09-09T07:22:36;27.63;;;16.15;;
44532;SDS011;48673;53.016;-2.258;2022-09-09T07:25:04;31.67;;;16.05;;
44532;SDS011;48673;53.016;-2.258;2022-09-09T07:27:32;27.95;;;16.13;;
44532;SDS011;48673;53.016;-2.258;2022-09-09T07:30:00;32.80;;;18.05;;
44532;SDS011;48673;53.016;-2.258;2022-09-09T07:32:32;30.23;;;17.25;;
44532;SDS011;48673;53.016;-2.258;2022-09-09T07:34:59;33.42;;;19.02;;
44532;SDS011;48673;53.016;-2.258;2022-09-09T07:37:28;32.17;;;17.38;;
44532;SDS011;48673;53.016;-2.258;2022-09-09T07:39:57;32.35;;;17.42;;
44532;SDS011;48673;53.016;-2.258;2022-09-09T07:42:25;32.45;;;18.23;;
44532;SDS011;48673;53.016;-2.258;2022-09-09T07:44:53;33.17;;;19.65;;
44532;SDS011;48673;53.016;-2.258;2022-09-09T07:49:51;32.28;;;16.98;;
44532;SDS011;48673;53.016;-2.258;2022-09-09T07:52:24;34.95;;;18.42;;
44532;SDS011;48673;53.016;-2.258;2022-09-09T07:54:56;30.75;;;17.75;;
44532;SDS011;48673;53.016;-2.258;2022-09-09T07:57:24;27.10;;;19.83;;
44532;SDS011;48673;53.016;-2.258;2022-09-09T07:59:55;33.40;;;20.88;;
44532;SDS011;48673;53.016;-2.258;2022-09-09T08:02:25;37.30;;;20.48;;
44532;SDS011;48673;53.016;-2.258;2022-09-09T08:04:55;34.88;;;22.52;;
44532;SDS011;48673;53.016;-2.258;2022-09-09T08:07:24;36.10;;;22.33;;
44532;SDS011;48673;53.016;-2.258;2022-09-09T08:09:54;40.33;;;23.30;;
44532;SDS011;48673;53.016;-2.258;2022-09-09T08:12:27;37.95;;;22.75;;
44532;SDS011;48673;53.016;-2.258;2022-09-09T08:14:56;35.72;;;23.63;;
44532;SDS011;48673;53.016;-2.258;2022-09-09T08:17:29;35.83;;;22.23;;
44532;SDS011;48673;53.016;-2.258;2022-09-09T08:20:00;44.17;;;24.75;;
44532;SDS011;48673;53.016;-2.258;2022-09-09T08:22:34;37.65;;;24.50;;
44532;SDS011;48673;53.016;-2.258;2022-09-09T08:25:01;39.80;;;23.05;;
44532;SDS011;48673;53.016;-2.258;2022-09-09T08:27:35;36.38;;;25.27;;
44532;SDS011;48673;53.016;-2.258;2022-09-09T08:30:04;37.40;;;24.35;;
44532;SDS011;48673;53.016;-2.258;2022-09-09T08:32:32;44.53;;;24.33;;
44532;SDS011;48673;53.016;-2.258;2022-09-09T08:35:02;36.28;;;21.77;;
44532;SDS011;48673;53.016;-2.258;2022-09-09T08:37:34;34.25;;;21.05;;
44532;SDS011;48673;53.016;-2.258;2022-09-09T08:40:04;35.58;;;23.40;;
44532;SDS011;48673;53.016;-2.258;2022-09-09T08:42:44;34.15;;;21.27;;
44532;SDS011;48673;53.016;-2.258;2022-09-09T08:48:20;30.40;;;21.30;;
44532;SDS011;48673;53.016;-2.258;2022-09-09T08:51:05;36.83;;;21.55;;
44532;SDS011;48673;53.016;-2.258;2022-09-09T08:53:44;34.67;;;22.50;;
44532;SDS011;48673;53.016;-2.258;2022-09-09T08:56:16;37.58;;;22.55;;
44532;SDS011;48673;53.016;-2.258;2022-09-09T08:58:53;30.52;;;21.35;;
44532;SDS011;48673;53.016;-2.258;2022-09-09T09:04:27;31.75;;;20.52;;
44532;SDS011;48673;53.016;-2.258;2022-09-09T09:12:15;30.58;;;21.35;;
44532;SDS011;48673;53.016;-2.258;2022-09-09T09:14:47;37.33;;;22.17;;
44532;SDS011;48673;53.016;-2.258;2022-09-09T09:17:18;31.90;;;18.95;;
44532;SDS011;48673;53.016;-2.258;2022-09-09T09:19:48;32.75;;;19.50;;
44532;SDS011;48673;53.016;-2.258;2022-09-09T09:22:30;30.52;;;20.90;;
44532;SDS011;48673;53.016;-2.258;2022-09-09T09:27:36;28.77;;;18.63;;
44532;SDS011;48673;53.016;-2.258;2022-09-09T09:30:18;29.17;;;19.73;;
44532;SDS011;48673;53.016;-2.258;2022-09-09T09:33:02;29.55;;;20.10;;
44532;SDS011;48673;53.016;-2.258;2022-09-09T09:35:38;28.20;;;17.48;;
44532;SDS011;48673;53.016;-2.258;2022-09-09T09:38:16;23.73;;;15.95;;
44532;SDS011;48673;53.016;-2.258;2022-09-09T09:41:05;19.42;;;15.88;;
44532;SDS011;48673;53.016;-2.258;2022-09-09T09:43:34;18.95;;;13.02;;
44532;SDS011;48673;53.016;-2.258;2022-09-09T09:46:22;17.63;;;12.65;;
44532;SDS011;48673;53.016;-2.258;2022-09-09T09:49:00;20.20;;;13.90;;
44532;SDS011;48673;53.016;-2.258;2022-09-09T09:51:34;21.92;;;14.10;;
44532;SDS011;48673;53.016;-2.258;2022-09-09T09:54:07;25.17;;;13.35;;
44532;SDS011;48673;53.016;-2.258;2022-09-09T09:56:55;18.08;;;13.00;;
44532;SDS011;48673;53.016;-2.258;2022-09-09T10:04:45;18.23;;;13.20;;
44532;SDS011;48673;53.016;-2.258;2022-09-09T10:07:18;21.38;;;14.65;;
44532;SDS011;48673;53.016;-2.258;2022-09-09T10:09:53;20.40;;;14.40;;
44532;SDS011;48673;53.016;-2.258;2022-09-09T10:15:05;29.13;;;16.35;;
44532;SDS011;48673;53.016;-2.258;2022-09-09T10:20:34;21.93;;;16.27;;
44532;SDS011;48673;53.016;-2.258;2022-09-09T10:26:03;25.90;;;17.23;;
44532;SDS011;48673;53.016;-2.258;2022-09-09T10:34:32;23.95;;;16.70;;
44532;SDS011;48673;53.016;-2.258;2022-09-09T10:36:38;26.08;;;17.60;;
44532;SDS011;48673;53.016;-2.258;2022-09-09T10:39:31;21.92;;;15.90;;
44532;SDS011;48673;53.016;-2.258;2022-09-09T10:42:09;23.30;;;11.88;;
44532;SDS011;48673;53.016;-2.258;2022-09-09T10:50:40;19.05;;;11.43;;
44532;SDS011;48673;53.016;-2.258;2022-09-09T10:56:51;19.33;;;11.13;;
44532;SDS011;48673;53.016;-2.258;2022-09-09T10:59:25;13.48;;;10.93;;
44532;SDS011;48673;53.016;-2.258;2022-09-09T11:04:45;18.83;;;8.45;;
44532;SDS011;48673;53.016;-2.258;2022-09-09T11:07:33;15.25;;;8.27;;
44532;SDS011;48673;53.016;-2.258;2022-09-09T11:13:05;13.80;;;8.40;;
44532;SDS011;48673;53.016;-2.258;2022-09-09T11:15:57;12.20;;;9.07;;
44532;SDS011;48673;53.016;-2.258;2022-09-09T11:18:31;19.42;;;9.80;;
44532;SDS011;48673;53.016;-2.258;2022-09-09T11:21:08;12.52;;;8.70;;
44532;SDS011;48673;53.016;-2.258;2022-09-09T11:23:45;20.25;;;10.63;;
44532;SDS011;48673;53.016;-2.258;2022-09-09T11:26:20;12.60;;;8.30;;
44532;SDS011;48673;53.016;-2.258;2022-09-09T11:29:03;16.83;;;8.55;;
44532;SDS011;48673;53.016;-2.258;2022-09-09T11:34:35;20.25;;;7.72;;
44532;SDS011;48673;53.016;-2.258;2022-09-09T11:37:09;18.80;;;9.00;;
44532;SDS011;48673;53.016;-2.258;2022-09-09T11:39:44;17.42;;;9.43;;
44532;SDS011;48673;53.016;-2.258;2022-09-09T11:42:16;15.13;;;8.15;;
44532;SDS011;48673;53.016;-2.258;2022-09-09T11:44:50;14.30;;;7.82;;
44532;SDS011;48673;53.016;-2.258;2022-09-09T11:52:43;13.00;;;7.05;;
44532;SDS011;48673;53.016;-2.258;2022-09-09T11:55:29;10.45;;;7.22;;
44532;SDS011;48673;53.016;-2.258;2022-09-09T12:00:42;12.68;;;7.38;;
44532;SDS011;48673;53.016;-2.258;2022-09-09T12:06:09;11.85;;;7.35;;
44532;SDS011;48673;53.016;-2.258;2022-09-09T12:08:44;17.92;;;9.13;;
44532;SDS011;48673;53.016;-2.258;2022-09-09T12:11:24;10.00;;;7.03;;
44532;SDS011;48673;53.016;-2.258;2022-09-09T12:13:57;11.35;;;5.72;;
44532;SDS011;48673;53.016;-2.258;2022-09-09T12:16:36;10.93;;;6.28;;
44532;SDS011;48673;53.016;-2.258;2022-09-09T12:21:44;12.18;;;5.85;;
44532;SDS011;48673;53.016;-2.258;2022-09-09T12:24:41;10.60;;;4.45;;
44532;SDS011;48673;53.016;-2.258;2022-09-09T12:32:29;7.63;;;3.88;;
44532;SDS011;48673;53.016;-2.258;2022-09-09T12:35:02;8.63;;;3.90;;
44532;SDS011;48673;53.016;-2.258;2022-09-09T12:40:31;10.68;;;3.67;;
44532;SDS011;48673;53.016;-2.258;2022-09-09T12:43:15;6.43;;;4.07;;
44532;SDS011;48673;53.016;-2.258;2022-09-09T12:45:49;13.93;;;4.07;;
44532;SDS011;48673;53.016;-2.258;2022-09-09T12:48:34;9.93;;;3.67;;
44532;SDS011;48673;53.016;-2.258;2022-09-09T12:51:17;15.90;;;10.23;;
44532;SDS011;48673;53.016;-2.258;2022-09-09T12:53:56;9.98;;;6.80;;
44532;SDS011;48673;53.016;-2.258;2022-09-09T12:56:27;14.85;;;6.15;;
44532;SDS011;48673;53.016;-2.258;2022-09-09T12:58:57;11.07;;;6.45;;
44532;SDS011;48673;53.016;-2.258;2022-09-09T13:03:56;14.73;;;5.93;;
44532;SDS011;48673;53.016;-2.258;2022-09-09T13:06:26;8.93;;;4.38;;
44532;SDS011;48673;53.016;-2.258;2022-09-09T13:08:56;7.68;;;3.47;;
44532;SDS011;48673;53.016;-2.258;2022-09-09T13:11:28;10.05;;;5.00;;
44532;SDS011;48673;53.016;-2.258;2022-09-09T13:14:06;9.93;;;3.20;;
44532;SDS011;48673;53.016;-2.258;2022-09-09T13:16:34;5.78;;;2.20;;
44532;SDS011;48673;53.016;-2.258;2022-09-09T13:19:13;5.45;;;2.00;;
44532;SDS011;48673;53.016;-2.258;2022-09-09T13:21:43;7.80;;;2.25;;
44532;SDS011;48673;53.016;-2.258;2022-09-09T13:24:31;7.43;;;3.53;;
44532;SDS011;48673;53.016;-2.258;2022-09-09T13:27:05;10.05;;;4.25;;
44532;SDS011;48673;53.016;-2.258;2022-09-09T13:29:51;9.90;;;4.63;;
44532;SDS011;48673;53.016;-2.258;2022-09-09T13:32:26;10.75;;;5.15;;
44532;SDS011;48673;53.016;-2.258;2022-09-09T13:34:57;10.18;;;5.97;;
44532;SDS011;48673;53.016;-2.258;2022-09-09T13:37:32;15.45;;;7.68;;
44532;SDS011;48673;53.016;-2.258;2022-09-09T13:40:04;17.33;;;8.88;;
44532;SDS011;48673;53.016;-2.258;2022-09-09T13:42:36;21.67;;;10.15;;
44532;SDS011;48673;53.016;-2.258;2022-09-09T13:45:14;16.73;;;7.28;;
44532;SDS011;48673;53.016;-2.258;2022-09-09T13:47:47;14.02;;;7.30;;
44532;SDS011;48673;53.016;-2.258;2022-09-09T13:50:26;19.38;;;6.70;;
44532;SDS011;48673;53.016;-2.258;2022-09-09T13:52:56;15.15;;;6.63;;
44532;SDS011;48673;53.016;-2.258;2022-09-09T13:55:26;19.02;;;7.50;;
44532;SDS011;48673;53.016;-2.258;2022-09-09T13:57:59;20.30;;;8.13;;
44532;SDS011;48673;53.016;-2.258;2022-09-09T14:00:29;16.50;;;7.15;;
44532;SDS011;48673;53.016;-2.258;2022-09-09T14:02:59;19.48;;;9.60;;
44532;SDS011;48673;53.016;-2.258;2022-09-09T14:05:30;11.07;;;5.80;;
44532;SDS011;48673;53.016;-2.258;2022-09-09T14:07:59;17.90;;;7.35;;
44532;SDS011;48673;53.016;-2.258;2022-09-09T14:10:28;15.32;;;7.40;;
44532;SDS011;48673;53.016;-2.258;2022-09-09T14:12:57;14.18;;;6.47;;
44532;SDS011;48673;53.016;-2.258;2022-09-09T14:15:24;10.65;;;6.00;;
44532;SDS011;48673;53.016;-2.258;2022-09-09T14:17:54;15.23;;;6.47;;
44532;SDS011;48673;53.016;-2.258;2022-09-09T14:20:23;8.50;;;5.13;;
44532;SDS011;48673;53.016;-2.258;2022-09-09T14:22:50;9.25;;;4.05;;
44532;SDS011;48673;53.016;-2.258;2022-09-09T14:25:18;12.07;;;4.60;;
44532;SDS011;48673;53.016;-2.258;2022-09-09T14:27:47;8.48;;;4.60;;
44532;SDS011;48673;53.016;-2.258;2022-09-09T14:30:16;8.95;;;5.03;;
44532;SDS011;48673;53.016;-2.258;2022-09-09T14:32:44;16.55;;;4.88;;
44532;SDS011;48673;53.016;-2.258;2022-09-09T14:35:16;9.68;;;4.55;;
44532;SDS011;48673;53.016;-2.258;2022-09-09T14:37:49;11.13;;;4.28;;
44532;SDS011;48673;53.016;-2.258;2022-09-09T14:40:17;11.43;;;3.88;;
44532;SDS011;48673;53.016;-2.258;2022-09-09T14:42:45;8.57;;;3.25;;
44532;SDS011;48673;53.016;-2.258;2022-09-09T14:45:13;8.05;;;2.95;;
44532;SDS011;48673;53.016;-2.258;2022-09-09T14:47:40;6.82;;;3.33;;
44532;SDS011;48673;53.016;-2.258;2022-09-09T14:50:08;9.80;;;2.90;;
44532;SDS011;48673;53.016;-2.258;2022-09-09T14:52:36;5.40;;;2.60;;
44532;SDS011;48673;53.016;-2.258;2022-09-09T14:55:04;6.90;;;2.95;;
44532;SDS011;48673;53.016;-2.258;2022-09-09T14:57:33;6.82;;;2.00;;
44532;SDS011;48673;53.016;-2.258;2022-09-09T15:00:02;3.90;;;2.28;;
44532;SDS011;48673;53.016;-2.258;2022-09-09T15:02:32;3.10;;;1.50;;
44532;SDS011;48673;53.016;-2.258;2022-09-09T15:05:02;4.57;;;1.73;;
44532;SDS011;48673;53.016;-2.258;2022-09-09T15:07:31;8.77;;;2.78;;
44532;SDS011;48673;53.016;-2.258;2022-09-09T15:09:59;4.90;;;1.92;;
44532;SDS011;48673;53.016;-2.258;2022-09-09T15:12:27;6.97;;;2.22;;
44532;SDS011;48673;53.016;-2.258;2022-09-09T15:14:55;5.95;;;2.80;;
44532;SDS011;48673;53.016;-2.258;2022-09-09T15:17:23;8.57;;;3.38;;
44532;SDS011;48673;53.016;-2.258;2022-09-09T15:19:53;5.35;;;2.55;;
44532;SDS011;48673;53.016;-2.258;2022-09-09T15:24:50;2.70;;;1.75;;
44532;SDS011;48673;53.016;-2.258;2022-09-09T15:27:18;6.03;;;1.95;;
44532;SDS011;48673;53.016;-2.258;2022-09-09T15:29:45;5.18;;;1.88;;
44532;SDS011;48673;53.016;-2.258;2022-09-09T15:32:13;2.65;;;1.20;;
44532;SDS011;48673;53.016;-2.258;2022-09-09T15:34:41;5.45;;;1.92;;
44532;SDS011;48673;53.016;-2.258;2022-09-09T15:37:10;4.38;;;2.25;;
44532;SDS011;48673;53.016;-2.258;2022-09-09T15:39:40;6.05;;;2.30;;
44532;SDS011;48673;53.016;-2.258;2022-09-09T15:42:08;5.57;;;3.40;;
44532;SDS011;48673;53.016;-2.258;2022-09-09T15:44:39;5.78;;;3.13;;
44532;SDS011;48673;53.016;-2.258;2022-09-09T15:47:12;6.57;;;2.67;;
44532;SDS011;48673;53.016;-2.258;2022-09-09T15:49:40;7.07;;;3.55;;
44532;SDS011;48673;53.016;-2.258;2022-09-09T15:52:08;10.60;;;4.10;;
44532;SDS011;48673;53.016;-2.258;2022-09-09T15:54:38;7.47;;;3.95;;
44532;SDS011;48673;53.016;-2.258;2022-09-09T15:57:07;7.43;;;3.75;;
44532;SDS011;48673;53.016;-2.258;2022-09-09T15:59:41;9.40;;;4.60;;
44532;SDS011;48673;53.016;-2.258;2022-09-09T16:02:08;6.72;;;3.28;;
44532;SDS011;48673;53.016;-2.258;2022-09-09T16:04:52;7.35;;;3.97;;
44532;SDS011;48673;53.016;-2.258;2022-09-09T16:07:20;1.50;;;0.80;;
44532;SDS011;48673;53.016;-2.258;2022-09-09T16:09:47;3.78;;;0.70;;
44532;SDS011;48673;53.016;-2.258;2022-09-09T16:12:18;1.58;;;0.50;;
44532;SDS011;48673;53.016;-2.258;2022-09-09T16:14:47;2.15;;;0.35;;
44532;SDS011;48673;53.016;-2.258;2022-09-09T16:17:21;5.70;;;0.95;;
44532;SDS011;48673;53.016;-2.258;2022-09-09T16:19:50;6.25;;;0.95;;
44532;SDS011;48673;53.016;-2.258;2022-09-09T16:22:22;4.07;;;0.73;;
44532;SDS011;48673;53.016;-2.258;2022-09-09T16:25:05;4.18;;;0.98;;
44532;SDS011;48673;53.016;-2.258;2022-09-09T16:27:39;2.83;;;0.60;;
44532;SDS011;48673;53.016;-2.258;2022-09-09T16:30:07;2.67;;;0.60;;
44532;SDS011;48673;53.016;-2.258;2022-09-09T16:32:35;5.20;;;0.90;;
44532;SDS011;48673;53.016;-2.258;2022-09-09T16:35:05;1.90;;;0.60;;
44532;SDS011;48673;53.016;-2.258;2022-09-09T16:37:34;3.72;;;0.68;;
44532;SDS011;48673;53.016;-2.258;2022-09-09T16:40:10;2.05;;;0.80;;
44532;SDS011;48673;53.016;-2.258;2022-09-09T16:42:40;2.72;;;1.20;;
44532;SDS011;48673;53.016;-2.258;2022-09-09T16:45:11;4.65;;;1.13;;
44532;SDS011;48673;53.016;-2.258;2022-09-09T16:47:55;3.80;;;1.38;;
44532;SDS011;48673;53.016;-2.258;2022-09-09T16:50:35;1.38;;;0.60;;
44532;SDS011;48673;53.016;-2.258;2022-09-09T16:53:09;2.05;;;0.93;;
44532;SDS011;48673;53.016;-2.258;2022-09-09T16:58:57;4.97;;;1.00;;
44532;SDS011;48673;53.016;-2.258;2022-09-09T17:01:56;4.00;;;1.25;;